Time;durP1;ratioP1;P1;durP2;ratioP2;P2;SDS_P1;SDS_P2;PMS_P1;PMS_P2;Temp;Humidity;BMP_temperature;BMP_pressure;BME280_temperature;BME280_humidity;BME280_pressure;Samples;Min_cycle;Max_cycle;Signal;HPM_P1;HPM_P2
2022/04/06 00:00:01;;;;;;;3.63;3.30;;;17.40;42.20;;;;;;5064870;28;48948;-18
2022/04/06 00:02:29;;;;;;;5.57;3.78;;;17.40;42.10;;;;;;5064678;28;46942;-18
2022/04/06 00:04:56;;;;;;;4.20;3.33;;;17.40;42.10;;;;;;5065060;28;46757;-18
2022/04/06 00:07:22;;;;;;;4.15;3.58;;;17.40;42.10;;;;;;5064643;28;47270;-12
2022/04/06 00:09:49;;;;;;;4.85;3.63;;;17.40;42.00;;;;;;5064823;28;47900;-14
2022/04/06 00:12:16;;;;;;;5.00;3.67;;;17.40;42.10;;;;;;5064782;28;47475;-13
2022/04/06 00:14:42;;;;;;;3.75;3.13;;;17.30;42.10;;;;;;5065006;28;46878;-13
2022/04/06 00:17:10;;;;;;;4.55;3.25;;;17.30;42.10;;;;;;5067699;28;46896;-13
2022/04/06 00:19:38;;;;;;;4.03;3.55;;;17.30;42.10;;;;;;5067801;28;48324;-14
2022/04/06 00:22:05;;;;;;;3.83;3.10;;;17.30;42.10;;;;;;5068077;28;46942;-14
2022/04/06 00:24:32;;;;;;;5.28;3.25;;;17.30;42.10;;;;;;5067945;28;47003;-15
2022/04/06 00:26:59;;;;;;;4.88;3.35;;;17.30;42.10;;;;;;5068348;28;47180;-14
2022/04/06 00:29:25;;;;;;;3.50;3.20;;;17.30;42.10;;;;;;5067915;28;49041;-15
2022/04/06 00:31:52;;;;;;;3.92;3.50;;;17.30;42.10;;;;;;5068005;28;46790;-18
2022/04/06 00:34:19;;;;;;;3.80;3.30;;;17.30;42.10;;;;;;5068071;28;47154;-19
2022/04/06 00:36:47;;;;;;;3.72;3.20;;;17.30;42.10;;;;;;5067976;28;46947;-19
2022/04/06 00:39:13;;;;;;;3.00;2.78;;;17.30;42.10;;;;;;5067818;28;49092;-14
2022/04/06 00:41:40;;;;;;;3.90;3.00;;;17.20;42.10;;;;;;5067824;28;46752;-14
2022/04/06 00:44:11;;;;;;;4.60;3.28;;;17.30;42.10;;;;;;5067727;28;46879;-18
2022/04/06 00:46:38;;;;;;;4.13;3.22;;;17.30;42.10;;;;;;5068017;28;46992;-19
2022/04/06 00:49:07;;;;;;;3.45;2.63;;;17.30;42.10;;;;;;5067686;28;46916;-20
2022/04/06 00:51:34;;;;;;;3.20;2.90;;;17.30;42.10;;;;;;5067740;28;47223;-19
2022/04/06 00:54:02;;;;;;;3.28;2.90;;;17.30;42.10;;;;;;5067604;28;46917;-19
2022/04/06 00:56:28;;;;;;;3.25;2.95;;;17.30;42.20;;;;;;5067858;28;46906;-19
2022/04/06 00:58:55;;;;;;;3.65;3.13;;;17.20;42.10;;;;;;5067396;28;49017;-18
2022/04/06 01:01:22;;;;;;;3.53;2.95;;;17.20;42.10;;;;;;5067668;28;46782;-18
2022/04/06 01:03:48;;;;;;;3.80;3.00;;;17.20;42.10;;;;;;5067635;28;46994;-18
2022/04/06 01:06:15;;;;;;;3.80;2.90;;;17.20;42.10;;;;;;5067431;28;46984;-14
2022/04/06 01:08:42;;;;;;;3.10;2.80;;;17.20;42.00;;;;;;5066959;28;46888;-13
2022/04/06 01:11:10;;;;;;;2.42;2.22;;;17.20;42.10;;;;;;5067328;28;47011;-13
2022/04/06 01:13:37;;;;;;;3.05;2.60;;;17.20;42.10;;;;;;5067218;28;46808;-13
2022/04/06 01:16:04;;;;;;;3.15;2.65;;;17.20;42.10;;;;;;5067499;28;46910;-14
2022/04/06 01:18:32;;;;;;;2.60;2.40;;;17.20;42.00;;;;;;5067101;28;48930;-13
2022/04/06 01:20:59;;;;;;;2.63;2.40;;;17.20;42.00;;;;;;5067340;28;46966;-14
2022/04/06 01:23:27;;;;;;;2.67;2.45;;;17.20;42.00;;;;;;5066824;28;46824;-19
2022/04/06 01:25:54;;;;;;;4.45;2.90;;;17.20;42.00;;;;;;5067378;28;46919;-19
2022/04/06 01:28:20;;;;;;;3.30;2.70;;;17.20;42.00;;;;;;5066742;28;47877;-19
2022/04/06 01:30:47;;;;;;;2.88;2.33;;;17.20;42.00;;;;;;5067175;28;46983;-19
2022/04/06 01:33:14;;;;;;;2.92;2.65;;;17.20;42.10;;;;;;5066786;28;46851;-14
2022/04/06 01:35:42;;;;;;;2.70;2.50;;;17.20;42.00;;;;;;5067324;28;46892;-18
2022/04/06 01:38:09;;;;;;;3.13;2.13;;;17.20;42.00;;;;;;5066662;28;48129;-18
2022/04/06 01:40:37;;;;;;;2.60;2.40;;;17.20;42.10;;;;;;5066931;28;46776;-18
2022/04/06 01:43:03;;;;;;;2.60;2.40;;;17.20;42.10;;;;;;5066890;28;46943;-19
2022/04/06 01:45:30;;;;;;;3.33;2.13;;;17.20;42.10;;;;;;5066906;28;46927;-15
2022/04/06 01:54:02;;;;;;;2.47;2.28;;;17.20;42.00;;;;;;5065925;28;47017;-15
2022/04/06 01:56:30;;;;;;;2.55;2.28;;;17.20;42.00;;;;;;5066681;28;46934;-15
2022/04/06 01:58:57;;;;;;;2.50;2.30;;;17.10;42.00;;;;;;5066072;28;46815;-14
2022/04/06 02:01:24;;;;;;;2.90;2.50;;;17.20;42.00;;;;;;5066588;28;46804;-15
2022/04/06 02:03:50;;;;;;;2.63;2.30;;;17.10;42.00;;;;;;5066476;28;46911;-14
2022/04/06 02:06:17;;;;;;;3.53;2.10;;;17.20;42.10;;;;;;5066555;28;46903;-19
2022/04/06 02:08:44;;;;;;;2.92;2.17;;;17.20;42.10;;;;;;5066615;28;48123;-20
2022/04/06 02:11:11;;;;;;;2.20;2.00;;;17.10;42.00;;;;;;5066328;28;46893;-19
2022/04/06 02:13:39;;;;;;;2.35;2.00;;;17.10;42.10;;;;;;5066264;28;46957;-20
2022/04/06 02:16:07;;;;;;;2.97;2.33;;;17.10;42.00;;;;;;5066688;28;46970;-20
2022/04/06 02:18:33;;;;;;;2.15;2.00;;;17.10;42.00;;;;;;5066151;28;49024;-20
2022/04/06 02:21:00;;;;;;;2.55;2.35;;;17.10;42.00;;;;;;5066007;28;46901;-20
2022/04/06 02:23:27;;;;;;;2.50;2.13;;;17.10;42.00;;;;;;5066120;28;46800;-20
2022/04/06 02:25:54;;;;;;;2.15;1.92;;;17.10;42.10;;;;;;5066497;28;46843;-14
2022/04/06 02:28:20;;;;;;;2.28;2.08;;;17.10;42.10;;;;;;5066058;28;48805;-14
2022/04/06 02:30:48;;;;;;;2.58;2.22;;;17.10;42.10;;;;;;5066020;28;47129;-15
2022/04/06 02:33:15;;;;;;;2.10;1.90;;;17.10;42.10;;;;;;5066185;28;46859;-14
2022/04/06 02:35:42;;;;;;;2.20;2.00;;;17.10;42.10;;;;;;5065957;28;47187;-15
2022/04/06 02:38:08;;;;;;;2.22;2.03;;;17.10;42.10;;;;;;5065146;28;47840;-15
2022/04/06 02:40:35;;;;;;;1.98;1.88;;;17.10;42.10;;;;;;5066050;28;46994;-15
2022/04/06 02:43:02;;;;;;;2.35;2.00;;;17.10;42.10;;;;;;5065809;28;46939;-15
2022/04/06 02:45:29;;;;;;;2.50;1.92;;;17.10;42.10;;;;;;5065903;28;46919;-15
2022/04/06 02:47:57;;;;;;;2.17;1.98;;;17.00;42.10;;;;;;5065688;28;48993;-19
2022/04/06 02:50:24;;;;;;;1.90;1.80;;;17.10;42.20;;;;;;5065716;28;46932;-15
2022/04/06 02:52:50;;;;;;;1.98;1.80;;;17.10;42.20;;;;;;5065491;28;46878;-19
2022/04/06 02:55:17;;;;;;;2.03;1.85;;;17.10;42.30;;;;;;5066092;28;46889;-19
2022/04/06 02:57:44;;;;;;;2.08;1.88;;;17.10;42.20;;;;;;5065685;28;47835;-19
2022/04/06 03:00:11;;;;;;;1.70;1.60;;;17.10;42.30;;;;;;5065742;28;47172;-15
2022/04/06 03:02:38;;;;;;;2.38;2.08;;;17.10;42.20;;;;;;5065521;28;46902;-14
2022/04/06 03:05:07;;;;;;;1.95;1.85;;;17.10;42.20;;;;;;5065717;28;46891;-15
2022/04/06 03:07:34;;;;;;;2.03;1.90;;;17.00;42.20;;;;;;5065170;28;46892;-14
2022/04/06 03:10:01;;;;;;;2.25;1.63;;;17.10;42.20;;;;;;5065242;28;46953;-20
2022/04/06 03:12:28;;;;;;;2.83;1.90;;;17.00;42.20;;;;;;5065279;28;46735;-19
2022/04/06 03:14:54;;;;;;;1.70;1.60;;;17.00;42.20;;;;;;5065917;28;47238;-15
2022/04/06 03:17:21;;;;;;;2.03;1.92;;;17.00;42.20;;;;;;5065374;28;47935;-14
2022/04/06 03:19:48;;;;;;;2.78;2.03;;;17.10;42.20;;;;;;5065640;28;46930;-14
2022/04/06 03:22:17;;;;;;;2.70;1.92;;;17.00;42.20;;;;;;5065146;28;46990;-15
2022/04/06 03:24:44;;;;;;;1.80;1.50;;;17.00;42.20;;;;;;5065352;28;46981;-15
2022/04/06 03:27:11;;;;;;;1.70;1.60;;;17.00;42.30;;;;;;5064978;28;47944;-19
2022/04/06 03:29:37;;;;;;;1.70;1.60;;;17.00;42.30;;;;;;5065004;28;46895;-19
2022/04/06 03:32:05;;;;;;;1.77;1.67;;;17.00;42.30;;;;;;5064935;28;46869;-19
2022/04/06 03:34:31;;;;;;;1.50;1.40;;;17.00;42.30;;;;;;5065460;28;46900;-19
2022/04/06 03:36:58;;;;;;;1.70;1.50;;;17.00;42.30;;;;;;5065375;28;46936;-19
2022/04/06 03:39:26;;;;;;;1.85;1.75;;;17.00;42.30;;;;;;5065066;28;46820;-15
2022/04/06 03:41:53;;;;;;;1.65;1.55;;;17.00;42.30;;;;;;5065203;28;46930;-15
2022/04/06 03:44:19;;;;;;;1.20;1.20;;;17.00;42.30;;;;;;5064976;28;46838;-19
2022/04/06 03:46:46;;;;;;;1.55;1.45;;;17.00;42.30;;;;;;5064944;28;47994;-20
2022/04/06 03:49:14;;;;;;;1.63;1.52;;;17.00;42.30;;;;;;5064885;28;46967;-20
2022/04/06 03:51:40;;;;;;;1.65;1.42;;;17.00;42.40;;;;;;5067463;28;46876;-19
2022/04/06 03:54:07;;;;;;;1.42;1.33;;;17.00;42.30;;;;;;5068453;28;47165;-19
2022/04/06 03:56:35;;;;;;;1.90;1.70;;;17.00;42.30;;;;;;5068515;28;47876;-15
2022/04/06 03:59:04;;;;;;;1.92;1.70;;;17.00;42.30;;;;;;5068384;28;47426;-15
2022/04/06 04:01:31;;;;;;;1.63;1.52;;;17.00;42.30;;;;;;5068401;28;47067;-14
2022/04/06 04:03:57;;;;;;;1.50;1.40;;;17.00;42.30;;;;;;5068416;28;47269;-15
2022/04/06 04:06:25;;;;;;;1.40;1.30;;;17.00;42.20;;;;;;5068684;28;46900;-15
2022/04/06 04:08:52;;;;;;;1.30;1.20;;;17.00;42.30;;;;;;5068174;28;46934;-14
2022/04/06 04:11:19;;;;;;;1.67;1.50;;;17.00;42.30;;;;;;5068191;28;46949;-15
2022/04/06 04:13:47;;;;;;;1.52;1.42;;;17.00;42.30;;;;;;5068581;28;46986;-15
2022/04/06 04:16:14;;;;;;;1.50;1.40;;;17.00;42.30;;;;;;5068308;28;48909;-15
2022/04/06 04:18:41;;;;;;;1.50;1.40;;;17.00;42.40;;;;;;5067915;28;47671;-15
2022/04/06 04:23:52;;;;;;;1.45;1.35;;;17.00;42.50;;;;;;5067490;28;46761;-15
2022/04/06 04:26:18;;;;;;;1.77;1.50;;;16.90;42.40;;;;;;5067959;28;47974;-16
2022/04/06 04:28:46;;;;;;;1.58;1.48;;;16.90;42.40;;;;;;5067896;28;46843;-15
2022/04/06 04:31:13;;;;;;;1.77;1.65;;;17.00;42.40;;;;;;5067698;28;47038;-15
2022/04/06 04:33:41;;;;;;;1.83;1.52;;;17.00;42.40;;;;;;5068153;28;47014;-14
2022/04/06 04:36:08;;;;;;;1.40;1.30;;;16.90;42.30;;;;;;5067564;28;48849;-15
2022/04/06 04:38:36;;;;;;;1.67;1.58;;;17.00;42.40;;;;;;5067668;28;47092;-15
2022/04/06 04:41:03;;;;;;;1.40;1.30;;;17.00;42.40;;;;;;5068122;28;46976;-15
2022/04/06 04:43:30;;;;;;;1.40;1.30;;;17.00;42.40;;;;;;5067566;28;47300;-19
2022/04/06 04:45:58;;;;;;;1.52;1.42;;;17.00;42.50;;;;;;5067762;28;47093;-20
2022/04/06 04:48:25;;;;;;;1.35;1.25;;;17.00;42.50;;;;;;5067352;28;47392;-19
2022/04/06 04:50:52;;;;;;;1.35;1.23;;;17.00;42.50;;;;;;5067961;28;47217;-20
2022/04/06 04:53:18;;;;;;;1.35;1.25;;;16.90;42.40;;;;;;5067201;28;46954;-19
2022/04/06 04:55:45;;;;;;;1.38;1.27;;;17.00;42.50;;;;;;5066514;28;48253;-19
2022/04/06 04:58:12;;;;;;;1.20;1.10;;;16.90;42.50;;;;;;5066659;28;47103;-20
2022/04/06 05:00:38;;;;;;;1.30;1.20;;;16.90;42.50;;;;;;5066222;28;46820;-19
2022/04/06 05:03:08;;;;;;;1.27;1.17;;;16.90;42.50;;;;;;5066311;28;47315;-20
2022/04/06 05:05:35;;;;;;;1.27;1.20;;;16.90;42.50;;;;;;5065790;28;49074;-20
2022/04/06 05:08:02;;;;;;;1.25;1.15;;;16.90;42.40;;;;;;5066245;28;46971;-20
2022/04/06 05:10:28;;;;;;;1.65;1.20;;;16.90;42.50;;;;;;5066410;28;46792;-20
2022/04/06 05:12:55;;;;;;;1.40;1.30;;;16.90;42.50;;;;;;5066390;28;47299;-20
2022/04/06 05:15:22;;;;;;;1.30;1.20;;;16.90;42.50;;;;;;5066173;28;47071;-20
2022/04/06 05:17:49;;;;;;;1.05;1.02;;;16.90;42.50;;;;;;5066176;28;47479;-20
2022/04/06 05:20:17;;;;;;;1.48;1.38;;;16.90;42.50;;;;;;5065972;28;46954;-20
2022/04/06 05:22:43;;;;;;;1.30;1.20;;;16.90;42.50;;;;;;5065968;28;46890;-19
2022/04/06 05:25:10;;;;;;;1.80;1.20;;;16.90;42.50;;;;;;5065865;28;48886;-15
2022/04/06 05:27:46;;;;;;;1.10;1.10;;;16.90;42.50;;;;;;5065888;28;47006;-15
2022/04/06 05:30:14;;;;;;;1.15;1.05;;;16.90;42.50;;;;;;5065736;28;47010;-14
2022/04/06 05:32:40;;;;;;;1.30;1.20;;;16.90;42.40;;;;;;5065749;28;47303;-20
2022/04/06 05:35:09;;;;;;;1.17;1.10;;;16.90;42.50;;;;;;5064696;28;47543;-19
2022/04/06 05:37:37;;;;;;;1.05;1.00;;;16.90;42.40;;;;;;5065236;28;46836;-14
2022/04/06 05:40:05;;;;;;;1.67;1.20;;;16.90;42.50;;;;;;5065566;28;46911;-20
2022/04/06 05:42:32;;;;;;;1.15;1.13;;;16.90;42.50;;;;;;5065585;28;46910;-20
2022/04/06 05:44:58;;;;;;;1.40;1.20;;;16.90;42.50;;;;;;5065609;28;48140;-19
2022/04/06 05:47:25;;;;;;;1.05;1.05;;;16.90;42.50;;;;;;5065383;28;47002;-19
2022/04/06 05:49:52;;;;;;;1.40;1.30;;;16.90;42.60;;;;;;5065741;28;47082;-19
2022/04/06 05:52:19;;;;;;;1.42;1.00;;;16.90;42.50;;;;;;5064549;28;47280;-20
2022/04/06 05:54:47;;;;;;;1.20;1.10;;;16.90;42.50;;;;;;5024380;28;1181962;-20
2022/04/06 05:57:14;;;;;;;1.17;1.08;;;16.90;42.60;;;;;;5066233;28;47466;-20
2022/04/06 05:59:40;;;;;;;1.17;1.02;;;16.90;42.60;;;;;;5066337;28;46872;-19
2022/04/06 06:02:08;;;;;;;1.15;1.10;;;16.90;42.60;;;;;;5066803;28;47371;-20
2022/04/06 06:04:34;;;;;;;1.30;1.20;;;16.90;42.60;;;;;;5065328;28;48938;-20
2022/04/06 06:07:01;;;;;;;1.20;1.20;;;16.90;42.70;;;;;;5065454;28;47186;-21
2022/04/06 06:09:28;;;;;;;1.17;1.08;;;16.90;42.70;;;;;;5065096;28;46893;-20
2022/04/06 06:11:56;;;;;;;1.05;1.05;;;16.90;42.70;;;;;;5065506;28;46940;-20
2022/04/06 06:14:22;;;;;;;1.00;1.00;;;16.90;42.60;;;;;;5063589;28;46935;-20
2022/04/06 06:16:49;;;;;;;1.05;1.05;;;16.90;42.70;;;;;;5065953;28;47452;-20
2022/04/06 06:19:16;;;;;;;1.10;1.00;;;16.90;42.70;;;;;;5065582;28;46887;-20
2022/04/06 06:21:43;;;;;;;1.00;1.00;;;16.90;43.20;;;;;;5065863;28;46875;-20
2022/04/06 06:24:09;;;;;;;1.00;1.00;;;16.90;42.70;;;;;;5065988;28;48751;-20
2022/04/06 06:26:37;;;;;;;1.30;0.95;;;16.90;42.80;;;;;;5065127;28;47145;-20
2022/04/06 06:29:06;;;;;;;1.67;1.25;;;16.90;42.70;;;;;;5064420;28;47129;-21
2022/04/06 06:31:32;;;;;;;1.05;1.00;;;16.90;42.80;;;;;;5064906;28;47048;-21
2022/04/06 06:33:59;;;;;;;1.05;1.00;;;16.90;42.80;;;;;;5064741;28;47891;-20
2022/04/06 06:36:26;;;;;;;0.90;0.90;;;16.90;42.80;;;;;;5062261;28;46822;-20
2022/04/06 06:38:53;;;;;;;0.90;0.80;;;16.90;42.90;;;;;;5064296;28;46929;-21
2022/04/06 06:41:20;;;;;;;0.90;0.90;;;16.90;42.80;;;;;;5064906;28;48126;-20
2022/04/06 06:43:48;;;;;;;0.98;0.98;;;16.90;43.10;;;;;;5064783;28;47062;-21
2022/04/06 06:46:17;;;;;;;1.02;1.02;;;16.90;42.90;;;;;;5064453;28;48303;-20
2022/04/06 06:48:45;;;;;;;1.17;1.00;;;16.90;42.70;;;;;;5064600;28;47145;-20
2022/04/06 06:51:13;;;;;;;0.70;0.70;;;16.90;42.80;;;;;;5064501;28;46922;-20
2022/04/06 06:53:42;;;;;;;0.90;0.90;;;16.90;42.90;;;;;;5063972;28;47065;-20
2022/04/06 06:56:09;;;;;;;0.80;0.80;;;17.00;42.90;;;;;;5064908;28;47134;-21
2022/04/06 06:58:37;;;;;;;1.02;0.90;;;16.90;42.90;;;;;;5064690;28;46966;-21
2022/04/06 07:01:04;;;;;;;0.80;0.80;;;16.90;42.90;;;;;;5065571;28;47061;-20
2022/04/06 07:03:33;;;;;;;1.00;1.00;;;17.00;42.80;;;;;;5064310;28;48048;-20
2022/04/06 07:06:01;;;;;;;0.77;0.77;;;17.00;42.90;;;;;;5064631;28;46931;-21
2022/04/06 07:08:30;;;;;;;0.98;0.93;;;17.00;42.70;;;;;;5064965;28;46777;-20
2022/04/06 07:10:57;;;;;;;1.23;0.80;;;17.00;43.00;;;;;;5064857;28;46819;-20
2022/04/06 07:13:25;;;;;;;0.80;0.80;;;17.00;43.10;;;;;;5064309;28;48915;-20
2022/04/06 07:15:52;;;;;;;0.90;0.80;;;17.00;43.00;;;;;;5064739;28;46937;-19
2022/04/06 07:18:21;;;;;;;2.78;1.30;;;17.00;43.00;;;;;;5065360;28;47429;-19
2022/04/06 07:20:49;;;;;;;2.05;1.02;;;17.00;44.10;;;;;;5065533;28;46891;-19
2022/04/06 07:23:16;;;;;;;2.65;1.05;;;17.10;45.50;;;;;;5064921;28;46924;-19
2022/04/06 07:25:42;;;;;;;2.88;1.08;;;17.10;45.90;;;;;;5065303;28;47547;-19
2022/04/06 07:28:09;;;;;;;2.00;1.00;;;17.10;46.00;;;;;;5064492;28;46981;-19
2022/04/06 07:30:36;;;;;;;2.72;1.02;;;17.10;45.90;;;;;;5065355;28;47078;-19
2022/04/06 07:33:03;;;;;;;1.45;1.05;;;17.10;46.40;;;;;;5064472;28;47976;-19
2022/04/06 07:35:31;;;;;;;2.53;0.90;;;17.10;46.00;;;;;;5064656;28;46851;-20
2022/04/06 07:37:59;;;;;;;1.50;0.98;;;17.10;46.30;;;;;;5064628;28;47015;-19
2022/04/06 07:40:26;;;;;;;0.85;0.85;;;17.10;46.40;;;;;;5065251;28;46898;-19
2022/04/06 07:42:53;;;;;;;1.20;0.95;;;17.10;46.60;;;;;;5064687;28;47884;-18
2022/04/06 07:45:21;;;;;;;1.00;0.88;;;17.10;46.80;;;;;;5064983;28;46893;-19
2022/04/06 07:47:48;;;;;;;2.05;0.90;;;17.10;47.10;;;;;;5064508;28;47006;-19
2022/04/06 07:50:16;;;;;;;2.63;0.90;;;17.10;47.40;;;;;;5064907;28;47292;-19
2022/04/06 07:52:44;;;;;;;1.33;0.80;;;17.10;47.10;;;;;;5061118;28;48052;-19
2022/04/06 07:55:13;;;;;;;2.55;0.68;;;17.10;47.00;;;;;;5046287;28;46962;-19
2022/04/06 07:57:39;;;;;;;1.48;1.00;;;17.20;47.00;;;;;;5042950;28;47005;-20
2022/04/06 08:00:09;;;;;;;1.73;0.68;;;17.20;46.60;;;;;;5054396;28;47202;-20
2022/04/06 08:02:36;;;;;;;1.80;0.85;;;17.20;46.80;;;;;;5063549;28;47814;-20
2022/04/06 08:05:04;;;;;;;5.15;0.80;;;17.20;46.60;;;;;;5063279;28;46871;-20
2022/04/06 08:07:31;;;;;;;1.73;0.75;;;17.20;46.60;;;;;;5064133;28;46906;-20
2022/04/06 08:09:58;;;;;;;1.40;0.70;;;17.20;46.50;;;;;;5063351;28;47282;-19
2022/04/06 08:12:26;;;;;;;1.65;0.80;;;17.30;46.60;;;;;;5063032;28;47043;-19
2022/04/06 08:14:53;;;;;;;0.82;0.82;;;17.30;46.30;;;;;;5063777;28;46950;-20
2022/04/06 08:17:20;;;;;;;1.55;0.65;;;17.30;46.10;;;;;;5064141;28;47145;-20
2022/04/06 08:19:47;;;;;;;0.70;0.70;;;17.30;46.00;;;;;;5064751;28;46902;-20
2022/04/06 08:22:15;;;;;;;0.80;0.77;;;17.40;45.90;;;;;;5064406;28;47081;-20
2022/04/06 08:24:41;;;;;;;1.33;0.60;;;17.40;45.80;;;;;;5064546;28;46880;-20
2022/04/06 08:27:08;;;;;;;0.98;0.70;;;17.50;45.80;;;;;;5064194;28;46993;-14
2022/04/06 08:29:36;;;;;;;1.25;0.70;;;17.50;45.60;;;;;;5064809;28;46896;-16
2022/04/06 08:32:03;;;;;;;2.20;0.75;;;17.60;45.60;;;;;;5064443;28;46824;-14
2022/04/06 08:34:30;;;;;;;1.08;0.55;;;17.60;45.60;;;;;;5064295;28;46969;-14
2022/04/06 08:36:56;;;;;;;1.00;0.70;;;17.60;45.60;;;;;;5065876;28;46966;-20
2022/04/06 08:39:23;;;;;;;2.20;0.63;;;17.70;45.70;;;;;;5067717;28;46932;-14
2022/04/06 08:41:50;;;;;;;1.90;0.70;;;17.70;45.60;;;;;;5067869;28;48358;-14
2022/04/06 08:44:17;;;;;;;2.90;0.80;;;17.70;45.50;;;;;;5067492;28;47181;-14
2022/04/06 08:46:45;;;;;;;1.55;0.90;;;17.80;45.50;;;;;;5067961;28;46836;-19
2022/04/06 08:49:11;;;;;;;1.75;0.60;;;17.80;45.50;;;;;;5067559;28;47195;-14
2022/04/06 08:51:39;;;;;;;1.85;0.75;;;17.80;45.50;;;;;;5066927;28;47859;-14
2022/04/06 08:54:07;;;;;;;2.63;0.88;;;17.90;45.50;;;;;;5066731;28;47085;-15
2022/04/06 08:56:33;;;;;;;2.63;0.65;;;17.90;45.50;;;;;;5067217;28;47096;-20
2022/04/06 08:59:04;;;;;;;2.53;0.82;;;17.90;45.70;;;;;;5067934;28;46911;-20
2022/04/06 09:01:33;;;;;;;1.40;0.70;;;17.90;45.50;;;;;;5065875;28;48198;-20
2022/04/06 09:04:01;;;;;;;5.30;1.45;;;17.90;45.80;;;;;;5065983;28;47092;-20
2022/04/06 09:06:32;;;;;;;1.25;0.90;;;18.00;45.70;;;;;;5066126;28;46878;-20
2022/04/06 09:08:58;;;;;;;2.25;0.80;;;18.00;45.50;;;;;;5065758;28;46824;-20
2022/04/06 09:11:28;;;;;;;2.65;0.80;;;18.00;45.60;;;;;;5065919;28;48818;-20
2022/04/06 09:13:59;;;;;;;0.52;0.50;;;18.00;45.50;;;;;;5063251;28;47231;-20
2022/04/06 09:16:27;;;;;;;1.60;0.55;;;18.00;45.50;;;;;;5065456;28;47015;-20
2022/04/06 09:18:54;;;;;;;2.38;0.63;;;18.10;45.50;;;;;;5065007;28;46872;-20
2022/04/06 09:21:22;;;;;;;3.47;0.70;;;18.10;45.40;;;;;;5065815;28;48143;-19
2022/04/06 09:23:49;;;;;;;1.55;0.80;;;18.10;45.30;;;;;;5064978;28;47388;-20
2022/04/06 09:26:19;;;;;;;1.95;0.80;;;18.20;45.30;;;;;;5064530;28;47092;-19
2022/04/06 09:28:47;;;;;;;1.23;1.00;;;18.20;45.30;;;;;;5052202;28;47101;-20
2022/04/06 09:31:15;;;;;;;2.03;0.70;;;18.20;45.20;;;;;;5061841;28;48055;-20
2022/04/06 09:33:43;;;;;;;1.90;0.73;;;18.30;45.30;;;;;;5063163;28;47376;-20
2022/04/06 09:36:18;;;;;;;3.50;1.30;;;18.30;45.20;;;;;;5062753;28;46922;-20
2022/04/06 09:38:49;;;;;;;0.90;0.68;;;18.30;45.10;;;;;;5063905;28;47134;-20
2022/04/06 09:41:16;;;;;;;3.75;0.95;;;18.30;45.10;;;;;;5063123;28;48494;-20
2022/04/06 09:43:44;;;;;;;1.85;0.70;;;18.30;45.00;;;;;;5063355;28;47198;-20
2022/04/06 09:49:03;;;;;;;1.73;0.85;;;18.40;45.80;;;;;;5062323;28;46958;-21
2022/04/06 09:51:30;;;;;;;0.82;0.60;;;18.50;45.80;;;;;;5065336;28;48189;-20
2022/04/06 09:54:00;;;;;;;2.58;0.60;;;18.50;45.60;;;;;;5065004;28;47118;-20
2022/04/06 09:56:28;;;;;;;1.05;0.60;;;18.50;45.50;;;;;;5065533;28;46984;-15
2022/04/06 09:58:57;;;;;;;1.92;0.60;;;18.50;45.40;;;;;;5061967;28;47173;-16
2022/04/06 10:01:26;;;;;;;0.80;0.60;;;18.60;45.20;;;;;;5064467;28;48173;-16
2022/04/06 10:03:55;;;;;;;2.40;0.70;;;18.60;45.10;;;;;;5065020;28;46902;-16
2022/04/06 10:06:22;;;;;;;0.73;0.65;;;18.70;45.60;;;;;;5066079;28;46907;-15
2022/04/06 10:08:49;;;;;;;0.90;0.80;;;18.70;45.40;;;;;;5066575;28;46933;-15
2022/04/06 10:11:18;;;;;;;2.03;0.55;;;18.70;45.50;;;;;;5066162;28;48373;-16
2022/04/06 10:13:45;;;;;;;1.65;0.60;;;18.70;45.90;;;;;;5066023;28;47101;-17
2022/04/06 10:16:13;;;;;;;2.45;0.80;;;18.70;45.40;;;;;;5066041;28;46841;-16
2022/04/06 10:18:42;;;;;;;1.17;0.50;;;18.70;46.00;;;;;;5065866;28;46926;-16
2022/04/06 10:21:13;;;;;;;2.38;0.73;;;18.70;45.60;;;;;;5065932;28;47861;-17
2022/04/06 10:23:45;;;;;;;0.95;0.60;;;18.80;45.70;;;;;;5066506;28;46936;-16
2022/04/06 10:26:20;;;;;;;1.45;0.40;;;18.80;46.20;;;;;;5065788;28;46960;-16
2022/04/06 10:28:49;;;;;;;0.98;0.57;;;18.80;45.70;;;;;;5065307;28;47092;-16
2022/04/06 10:31:17;;;;;;;0.70;0.70;;;18.80;45.60;;;;;;5065224;28;48197;-16
2022/04/06 10:33:45;;;;;;;0.63;0.63;;;18.80;45.80;;;;;;5065468;28;46848;-17
2022/04/06 10:36:23;;;;;;;0.60;0.35;;;18.80;45.90;;;;;;5066037;28;46912;-21
2022/04/06 10:39:12;;;;;;;0.50;0.40;;;18.80;46.00;;;;;;5064341;28;46924;-21
2022/04/06 10:42:15;;;;;;;1.45;0.50;;;18.80;46.10;;;;;;5065502;28;47975;-17
2022/04/06 10:44:43;;;;;;;0.47;0.47;;;18.90;46.40;;;;;;5065570;28;46977;-16
2022/04/06 10:47:10;;;;;;;0.50;0.50;;;18.90;45.70;;;;;;5064606;28;46982;-16
2022/04/06 10:49:37;;;;;;;1.27;0.40;;;19.00;46.50;;;;;;5064842;28;46935;-17
2022/04/06 10:52:19;;;;;;;0.50;0.50;;;19.00;46.40;;;;;;5064451;28;48046;-16
2022/04/06 10:54:46;;;;;;;0.60;0.60;;;19.10;46.00;;;;;;5063185;28;46998;-16
2022/04/06 10:57:14;;;;;;;0.63;0.40;;;19.10;45.70;;;;;;5061431;28;46933;-16
2022/04/06 10:59:41;;;;;;;0.45;0.40;;;19.20;45.90;;;;;;5063717;28;46915;-15
2022/04/06 11:02:16;;;;;;;1.58;0.50;;;19.20;46.40;;;;;;5064118;28;48161;-20
2022/04/06 11:04:43;;;;;;;1.65;0.60;;;19.20;46.50;;;;;;5064034;28;47088;-21
2022/04/06 11:07:10;;;;;;;1.13;0.40;;;19.30;46.80;;;;;;5064274;28;46975;-21
2022/04/06 11:12:23;;;;;;;0.95;0.80;;;19.30;46.30;;;;;;5059700;28;47639;-20
2022/04/06 11:14:50;;;;;;;0.75;0.63;;;19.40;45.90;;;;;;5064103;28;46785;-21
2022/04/06 11:17:38;;;;;;;1.02;0.70;;;19.40;46.00;;;;;;5062563;28;46989;-21
2022/04/06 11:20:07;;;;;;;0.60;0.60;;;19.40;46.00;;;;;;5063301;28;46850;-20
2022/04/06 11:22:33;;;;;;;0.90;0.60;;;19.50;46.00;;;;;;5061412;28;49092;-20
2022/04/06 11:25:00;;;;;;;0.68;0.60;;;19.50;46.30;;;;;;5065028;28;46845;-21
2022/04/06 11:27:28;;;;;;;0.85;0.60;;;19.60;46.20;;;;;;5064472;28;46874;-20
2022/04/06 11:30:02;;;;;;;0.88;0.50;;;19.70;46.10;;;;;;5064762;28;46945;-20
2022/04/06 11:32:29;;;;;;;1.00;0.52;;;19.70;45.40;;;;;;5064187;28;47857;-20
2022/04/06 11:34:59;;;;;;;0.85;0.70;;;19.70;45.40;;;;;;5064248;28;46912;-20
2022/04/06 11:37:26;;;;;;;0.50;0.50;;;19.80;45.80;;;;;;5064920;28;46807;-19
2022/04/06 11:39:57;;;;;;;0.50;0.50;;;19.90;45.30;;;;;;5065274;28;47355;-20
2022/04/06 11:42:25;;;;;;;0.68;0.68;;;19.90;45.10;;;;;;5061890;28;48146;-20
2022/04/06 11:44:53;;;;;;;0.77;0.70;;;19.90;45.10;;;;;;5064750;28;46944;-21
2022/04/06 11:47:30;;;;;;;0.50;0.50;;;20.00;45.50;;;;;;5064688;28;46835;-21
2022/04/06 11:49:57;;;;;;;0.50;0.50;;;20.00;44.90;;;;;;5065037;28;47070;-21
2022/04/06 11:52:24;;;;;;;1.58;0.65;;;20.10;44.80;;;;;;5064129;28;47910;-20
2022/04/06 11:54:52;;;;;;;0.80;0.80;;;20.10;44.80;;;;;;5064210;28;47209;-21
2022/04/06 11:57:18;;;;;;;2.80;0.52;;;20.20;44.50;;;;;;5064970;28;46901;-21
2022/04/06 11:59:56;;;;;;;0.57;0.57;;;20.30;44.90;;;;;;5064697;28;46855;-20
2022/04/06 12:02:23;;;;;;;0.80;0.80;;;20.30;45.00;;;;;;5064519;28;48031;-21
2022/04/06 12:05:03;;;;;;;2.15;0.93;;;20.40;44.90;;;;;;5064810;28;46923;-20
2022/04/06 12:07:30;;;;;;;2.22;0.82;;;20.60;44.70;;;;;;5062875;28;46978;-20
2022/04/06 12:09:56;;;;;;;0.90;0.80;;;20.60;44.50;;;;;;5063377;28;46989;-19
2022/04/06 12:12:24;;;;;;;0.70;0.70;;;20.70;43.90;;;;;;5065145;28;48138;-20
2022/04/06 12:14:52;;;;;;;5.35;1.08;;;20.70;43.90;;;;;;5067027;28;47464;-20
2022/04/06 12:17:20;;;;;;;2.42;0.95;;;20.70;43.60;;;;;;5067144;28;47177;-20
2022/04/06 12:19:47;;;;;;;6.28;1.10;;;20.80;43.70;;;;;;5068219;28;46962;-20
2022/04/06 12:22:13;;;;;;;2.50;0.57;;;20.80;43.70;;;;;;5067807;28;47942;-20
2022/04/06 12:24:41;;;;;;;1.15;0.57;;;20.90;43.80;;;;;;5067818;28;46794;-20
2022/04/06 12:27:08;;;;;;;1.60;0.60;;;21.00;43.60;;;;;;5068276;28;46979;-19
2022/04/06 12:29:35;;;;;;;0.57;0.57;;;21.00;43.60;;;;;;5067994;28;47004;-19
2022/04/06 12:32:03;;;;;;;1.00;0.60;;;21.10;43.70;;;;;;5067625;28;49145;-20
2022/04/06 12:34:34;;;;;;;1.55;0.40;;;21.20;43.20;;;;;;5067526;28;46752;-20
2022/04/06 12:37:29;;;;;;;0.50;0.50;;;21.20;43.60;;;;;;5067028;28;47002;-20
2022/04/06 12:39:49;;;;;;;0.50;0.50;;;21.20;43.30;;;;;;5063629;28;47030;-20
2022/04/06 12:42:16;;;;;;;1.55;0.50;;;21.20;43.30;;;;;;5066445;28;48208;-21
2022/04/06 12:44:55;;;;;;;0.55;0.55;;;21.20;43.40;;;;;;5066763;28;47030;-21
2022/04/06 12:47:23;;;;;;;0.80;0.60;;;21.20;43.00;;;;;;5065417;28;47045;-20
2022/04/06 12:49:51;;;;;;;0.60;0.60;;;21.20;43.50;;;;;;5064104;28;47244;-20
2022/04/06 12:52:20;;;;;;;1.35;0.50;;;21.20;43.60;;;;;;5066672;28;47933;-21
2022/04/06 12:54:48;;;;;;;0.50;0.50;;;21.20;43.00;;;;;;5066719;28;46978;-21
2022/04/06 12:57:17;;;;;;;0.80;0.80;;;21.10;42.60;;;;;;5067145;28;46925;-21
2022/04/06 12:59:45;;;;;;;0.55;0.55;;;21.00;42.90;;;;;;5067232;28;47212;-20
2022/04/06 13:02:19;;;;;;;1.30;0.70;;;20.90;43.40;;;;;;5067161;28;49072;-20
2022/04/06 13:04:46;;;;;;;0.60;0.60;;;20.90;43.00;;;;;;5067220;28;46959;-20